OOSA 251750Z 17005KT 9999 BKN025 27/23 Q1008 NOSIG